Time;durP1;ratioP1;P1;durP2;ratioP2;P2;SDS_P1;SDS_P2;PMS_P1;PMS_P2;Temp;Humidity;BMP_temperature;BMP_pressure;BME280_temperature;BME280_humidity;BME280_pressure;Samples;Min_cycle;Max_cycle;Signal;HPM_P1;HPM_P2
2023/02/27 00:02:24;;;;;;;;;6.67;6.67;;;;;;;;117814;1190;25246;-63
2023/02/27 00:04:53;;;;;;;;;8.50;7.00;;;;;;;;117934;1192;25036;-63
2023/02/27 00:07:24;;;;;;;;;6.50;6.50;;;;;;;;117925;1192;25416;-64
2023/02/27 00:09:53;;;;;;;;;7.50;6.50;;;;;;;;117889;1187;24833;-64
2023/02/27 00:12:21;;;;;;;;;4.75;4.75;;;;;;;;117861;1180;25380;-63
2023/02/27 00:14:50;;;;;;;;;7.00;6.00;;;;;;;;117914;1180;25620;-63
2023/02/27 00:17:19;;;;;;;;;9.00;8.00;;;;;;;;117847;1186;25085;-64
2023/02/27 00:19:47;;;;;;;;;12.50;8.00;;;;;;;;117927;1179;25771;-64
2023/02/27 00:22:16;;;;;;;;;7.75;6.00;;;;;;;;117839;1178;25081;-63
2023/02/27 00:24:44;;;;;;;;;8.00;7.67;;;;;;;;117921;1181;25633;-64
2023/02/27 00:27:12;;;;;;;;;9.00;7.25;;;;;;;;117883;1179;25584;-63
2023/02/27 00:29:41;;;;;;;;;7.00;7.00;;;;;;;;117891;1190;25198;-63
2023/02/27 00:32:09;;;;;;;;;8.00;7.00;;;;;;;;117864;1191;25053;-64
2023/02/27 00:34:38;;;;;;;;;8.50;7.50;;;;;;;;117884;1191;25181;-62
2023/02/27 00:37:07;;;;;;;;;5.50;5.50;;;;;;;;117934;1178;24931;-64
2023/02/27 00:39:35;;;;;;;;;7.67;7.00;;;;;;;;117899;1192;25153;-64
2023/02/27 00:42:04;;;;;;;;;7.67;7.67;;;;;;;;117904;1191;25167;-63
2023/02/27 00:44:32;;;;;;;;;6.67;6.67;;;;;;;;117902;1180;25156;-62
2023/02/27 00:47:01;;;;;;;;;6.00;5.00;;;;;;;;117902;1191;25590;-63
2023/02/27 00:49:29;;;;;;;;;9.50;3.25;;;;;;;;117889;1191;25917;-64
2023/02/27 00:51:57;;;;;;;;;8.00;5.67;;;;;;;;117890;1189;25294;-64
2023/02/27 00:54:26;;;;;;;;;6.67;6.67;;;;;;;;117915;1183;25317;-63
2023/02/27 00:56:55;;;;;;;;;5.00;4.33;;;;;;;;117921;1190;25518;-64
2023/02/27 00:59:23;;;;;;;;;6.00;5.00;;;;;;;;117909;1181;25311;-64
2023/02/27 01:01:51;;;;;;;;;5.00;5.00;;;;;;;;117892;1191;26199;-64
2023/02/27 01:04:20;;;;;;;;;7.00;5.50;;;;;;;;117906;1191;24944;-64
2023/02/27 01:06:49;;;;;;;;;7.67;7.00;;;;;;;;117931;1180;24875;-64
2023/02/27 01:09:17;;;;;;;;;8.00;8.00;;;;;;;;117930;1180;25579;-64
2023/02/27 01:11:45;;;;;;;;;6.00;6.00;;;;;;;;117879;1191;25382;-64
2023/02/27 01:14:14;;;;;;;;;6.00;6.00;;;;;;;;117919;1181;25547;-64
2023/02/27 01:16:42;;;;;;;;;7.50;6.00;;;;;;;;117907;1192;25919;-64
2023/02/27 01:19:11;;;;;;;;;10.25;7.75;;;;;;;;117959;1180;25351;-63
2023/02/27 01:21:40;;;;;;;;;5.00;5.00;;;;;;;;117854;1180;25465;-64
2023/02/27 01:24:11;;;;;;;;;6.00;4.00;;;;;;;;117880;1179;25366;-65
2023/02/27 01:26:40;;;;;;;;;4.00;4.00;;;;;;;;117924;1179;25683;-64
2023/02/27 01:29:08;;;;;;;;;7.00;6.00;;;;;;;;117898;1180;25480;-65
2023/02/27 01:31:37;;;;;;;;;5.00;4.50;;;;;;;;117954;1179;24999;-64
2023/02/27 01:34:05;;;;;;;;;6.33;6.00;;;;;;;;117923;1180;24802;-65
2023/02/27 01:36:34;;;;;;;;;6.33;6.00;;;;;;;;117909;1191;25350;-65
2023/02/27 01:39:03;;;;;;;;;5.00;5.00;;;;;;;;117871;1181;25610;-65
2023/02/27 01:41:32;;;;;;;;;6.00;5.50;;;;;;;;117837;1179;25118;-64
2023/02/27 01:44:03;;;;;;;;;5.00;5.00;;;;;;;;117798;1191;25209;-65
2023/02/27 01:46:33;;;;;;;;;6.50;5.00;;;;;;;;117890;1180;25311;-65
2023/02/27 01:49:23;;;;;;;;;7.00;7.00;;;;;;;;117850;1191;24861;-65
2023/02/27 01:52:04;;;;;;;;;4.00;4.00;;;;;;;;117803;1177;25342;-64
2023/02/27 01:54:38;;;;;;;;;7.00;5.33;;;;;;;;117931;1183;25361;-64
2023/02/27 01:57:08;;;;;;;;;6.75;6.25;;;;;;;;117897;1180;26053;-65
2023/02/27 01:59:39;;;;;;;;;4.33;4.33;;;;;;;;117918;1191;25223;-64
2023/02/27 02:02:19;;;;;;;;;6.67;5.67;;;;;;;;117890;1181;25136;-64
2023/02/27 02:04:48;;;;;;;;;4.00;4.00;;;;;;;;117918;1181;25350;-63
2023/02/27 02:07:18;;;;;;;;;6.33;5.67;;;;;;;;117942;1180;25007;-64
2023/02/27 02:09:54;;;;;;;;;5.00;5.00;;;;;;;;117905;1179;25616;-65
2023/02/27 02:12:26;;;;;;;;;5.25;5.25;;;;;;;;117931;1177;24867;-65
2023/02/27 02:14:54;;;;;;;;;6.67;6.67;;;;;;;;117911;1180;24976;-65
2023/02/27 02:17:29;;;;;;;;;5.00;5.00;;;;;;;;117886;1179;25440;-64
2023/02/27 02:20:06;;;;;;;;;4.00;4.00;;;;;;;;117927;1180;25503;-65
2023/02/27 02:23:12;;;;;;;;;7.00;5.50;;;;;;;;117920;1178;25434;-65
2023/02/27 02:25:53;;;;;;;;;4.33;3.00;;;;;;;;117895;1181;25318;-65
2023/02/27 02:28:34;;;;;;;;;6.50;5.50;;;;;;;;117917;1191;25497;-64
2023/02/27 02:31:20;;;;;;;;;5.00;5.00;;;;;;;;117936;1191;24751;-65
2023/02/27 02:34:12;;;;;;;;;6.00;5.00;;;;;;;;117932;1179;25695;-65
2023/02/27 02:36:46;;;;;;;;;6.00;5.67;;;;;;;;117885;1191;25731;-64
2023/02/27 02:39:44;;;;;;;;;5.50;5.50;;;;;;;;117897;1180;25137;-64
2023/02/27 02:42:26;;;;;;;;;6.50;5.25;;;;;;;;117914;1179;25211;-64
2023/02/27 02:45:23;;;;;;;;;6.00;4.50;;;;;;;;117894;1177;25122;-64
2023/02/27 02:48:11;;;;;;;;;4.67;4.33;;;;;;;;117924;1191;25362;-65
2023/02/27 02:51:08;;;;;;;;;7.00;5.00;;;;;;;;117914;1180;24734;-65
2023/02/27 02:54:15;;;;;;;;;4.33;4.00;;;;;;;;117905;1183;24707;-63
2023/02/27 02:56:59;;;;;;;;;6.25;3.75;;;;;;;;117930;1191;25568;-65
2023/02/27 02:59:37;;;;;;;;;5.50;5.50;;;;;;;;117891;1179;25962;-64
2023/02/27 03:02:09;;;;;;;;;5.67;5.67;;;;;;;;117912;1179;25161;-65
2023/02/27 03:04:42;;;;;;;;;4.67;4.67;;;;;;;;117898;1191;25402;-64
2023/02/27 03:07:19;;;;;;;;;5.50;5.50;;;;;;;;117807;1180;24959;-65
2023/02/27 03:10:12;;;;;;;;;7.50;6.50;;;;;;;;117831;1180;25779;-63
2023/02/27 03:12:45;;;;;;;;;6.00;5.33;;;;;;;;117877;1181;25420;-63
2023/02/27 03:15:33;;;;;;;;;6.33;5.33;;;;;;;;117923;1181;25538;-63
2023/02/27 03:18:16;;;;;;;;;6.67;6.00;;;;;;;;117865;1191;24901;-65
2023/02/27 03:20:49;;;;;;;;;3.33;3.33;;;;;;;;117830;1191;25676;-66
2023/02/27 03:23:24;;;;;;;;;4.50;4.50;;;;;;;;117905;1179;25521;-64
2023/02/27 03:25:52;;;;;;;;;7.25;5.25;;;;;;;;117885;1178;24789;-64
2023/02/27 03:28:28;;;;;;;;;5.00;3.75;;;;;;;;117906;1183;25576;-65
2023/02/27 03:31:47;;;;;;;;;5.00;5.00;;;;;;;;117845;1188;25276;-65
2023/02/27 03:34:36;;;;;;;;;7.00;5.50;;;;;;;;117410;1190;24712;-63
2023/02/27 03:37:28;;;;;;;;;5.50;5.00;;;;;;;;117358;1194;24765;-65
2023/02/27 03:40:35;;;;;;;;;5.33;5.33;;;;;;;;117687;1189;24934;-65
2023/02/27 03:43:30;;;;;;;;;5.67;4.00;;;;;;;;117850;1189;25675;-64
2023/02/27 03:46:21;;;;;;;;;6.00;3.75;;;;;;;;117897;1191;25024;-67
2023/02/27 03:48:49;;;;;;;;;3.00;3.00;;;;;;;;117927;1183;24800;-66
2023/02/27 03:51:22;;;;;;;;;6.33;4.00;;;;;;;;117948;1192;25038;-65
2023/02/27 03:53:59;;;;;;;;;7.00;5.00;;;;;;;;117936;1179;25413;-65
2023/02/27 03:56:33;;;;;;;;;8.75;6.00;;;;;;;;117885;1177;24946;-65
2023/02/27 03:59:01;;;;;;;;;5.75;5.50;;;;;;;;117904;1180;25411;-64
2023/02/27 04:01:30;;;;;;;;;7.00;6.00;;;;;;;;117938;1179;25119;-65
2023/02/27 04:04:06;;;;;;;;;7.00;6.00;;;;;;;;117917;1180;24897;-64
2023/02/27 04:09:46;;;;;;;;;8.00;5.00;;;;;;;;117926;1192;25204;-64
2023/02/27 04:12:36;;;;;;;;;7.00;6.00;;;;;;;;117958;1180;25234;-65
2023/02/27 04:15:08;;;;;;;;;8.33;6.33;;;;;;;;117904;1179;24731;-65
2023/02/27 04:17:59;;;;;;;;;8.00;5.50;;;;;;;;117880;1180;25115;-64
2023/02/27 04:20:48;;;;;;;;;8.00;5.00;;;;;;;;117835;1187;25700;-64
2023/02/27 04:23:40;;;;;;;;;6.00;4.67;;;;;;;;117888;1187;25179;-66
2023/02/27 04:26:24;;;;;;;;;4.67;3.67;;;;;;;;117864;1191;26212;-65
2023/02/27 04:28:58;;;;;;;;;6.50;3.50;;;;;;;;118004;1190;24940;-66
2023/02/27 04:31:32;;;;;;;;;9.00;3.33;;;;;;;;117903;1191;24980;-65
2023/02/27 04:34:09;;;;;;;;;4.00;4.00;;;;;;;;117804;1181;25037;-64
2023/02/27 04:36:45;;;;;;;;;5.50;5.00;;;;;;;;117871;1180;24742;-64
2023/02/27 04:39:27;;;;;;;;;8.00;5.00;;;;;;;;117922;1180;26134;-64
2023/02/27 04:42:04;;;;;;;;;2.00;2.00;;;;;;;;117894;1181;25227;-63
2023/02/27 04:44:35;;;;;;;;;7.00;3.33;;;;;;;;117882;1180;25689;-64
2023/02/27 04:47:06;;;;;;;;;9.00;5.00;;;;;;;;117863;1181;25523;-64
2023/02/27 04:49:43;;;;;;;;;4.67;4.00;;;;;;;;117854;1187;25791;-61
2023/02/27 04:52:16;;;;;;;;;4.00;4.00;;;;;;;;117936;1179;25532;-61
2023/02/27 04:54:59;;;;;;;;;8.67;4.00;;;;;;;;117924;1179;25015;-60
2023/02/27 04:57:40;;;;;;;;;4.50;3.00;;;;;;;;117937;1178;25618;-61
2023/02/27 05:00:11;;;;;;;;;6.33;5.00;;;;;;;;117936;1180;25634;-61
2023/02/27 05:02:50;;;;;;;;;4.50;3.50;;;;;;;;117800;1187;25110;-61
2023/02/27 05:05:23;;;;;;;;;8.50;5.00;;;;;;;;119843;1189;25574;-61
2023/02/27 05:07:59;;;;;;;;;4.75;4.00;;;;;;;;119821;1183;25273;-61
2023/02/27 05:10:46;;;;;;;;;4.00;3.67;;;;;;;;119884;1191;24836;-61
2023/02/27 05:13:21;;;;;;;;;4.50;4.00;;;;;;;;119871;1191;25572;-61
2023/02/27 05:15:55;;;;;;;;;1.00;1.00;;;;;;;;118292;1192;25579;-61
2023/02/27 05:18:24;;;;;;;;;7.50;3.50;;;;;;;;117907;1181;25150;-61
2023/02/27 05:21:14;;;;;;;;;3.67;3.00;;;;;;;;117907;1180;25564;-60
2023/02/27 05:23:54;;;;;;;;;7.00;3.67;;;;;;;;117875;1180;25229;-61
2023/02/27 05:26:49;;;;;;;;;4.00;4.00;;;;;;;;117880;1191;25196;-62
2023/02/27 05:29:27;;;;;;;;;4.50;2.00;;;;;;;;117837;1180;24935;-61
2023/02/27 05:32:02;;;;;;;;;3.00;2.00;;;;;;;;117902;1191;25182;-61
2023/02/27 05:34:40;;;;;;;;;8.67;4.33;;;;;;;;117919;1192;25252;-61
2023/02/27 05:37:22;;;;;;;;;4.00;3.33;;;;;;;;117858;1191;25616;-62
2023/02/27 05:39:52;;;;;;;;;10.00;4.75;;;;;;;;117826;1181;25500;-61
2023/02/27 05:42:30;;;;;;;;;8.33;4.67;;;;;;;;117913;1187;24782;-60
2023/02/27 05:45:19;;;;;;;;;3.50;3.50;;;;;;;;117914;1190;24943;-60
2023/02/27 05:47:54;;;;;;;;;3.50;3.00;;;;;;;;117896;1192;25494;-60
2023/02/27 05:50:26;;;;;;;;;5.00;5.00;;;;;;;;117908;1191;24811;-61
2023/02/27 05:52:57;;;;;;;;;4.50;2.75;;;;;;;;117854;1180;24970;-61
2023/02/27 05:55:34;;;;;;;;;4.67;4.00;;;;;;;;117841;1180;25181;-61
2023/02/27 05:58:14;;;;;;;;;3.50;3.00;;;;;;;;117838;1191;26164;-62
2023/02/27 06:00:47;;;;;;;;;6.00;3.75;;;;;;;;117878;1181;25405;-61
2023/02/27 06:03:15;;;;;;;;;6.33;4.00;;;;;;;;117880;1182;25093;-61
2023/02/27 06:05:45;;;;;;;;;5.00;4.00;;;;;;;;117889;1187;25208;-61
2023/02/27 06:08:13;;;;;;;;;4.67;3.00;;;;;;;;117816;1179;24815;-61
2023/02/27 06:10:42;;;;;;;;;5.00;2.25;;;;;;;;117844;1180;25322;-62
2023/02/27 06:13:10;;;;;;;;;3.00;3.00;;;;;;;;117886;1191;24876;-60
2023/02/27 06:15:39;;;;;;;;;5.00;4.00;;;;;;;;117928;1191;25173;-61
2023/02/27 06:18:09;;;;;;;;;7.33;4.00;;;;;;;;117874;1181;25554;-60
2023/02/27 06:20:38;;;;;;;;;5.50;4.50;;;;;;;;117864;1184;25630;-60
2023/02/27 06:23:07;;;;;;;;;4.00;4.00;;;;;;;;117868;1185;25157;-60
2023/02/27 06:25:35;;;;;;;;;3.67;2.00;;;;;;;;117809;1191;25680;-61
2023/02/27 06:28:04;;;;;;;;;2.00;2.00;;;;;;;;117951;1191;25391;-60
2023/02/27 06:30:33;;;;;;;;;2.33;2.33;;;;;;;;117972;1179;24735;-61
2023/02/27 06:33:02;;;;;;;;;3.33;2.33;;;;;;;;117939;1182;25394;-62
2023/02/27 06:35:30;;;;;;;;;2.67;2.67;;;;;;;;117996;1191;25316;-61
2023/02/27 06:37:59;;;;;;;;;3.67;3.00;;;;;;;;117851;1181;25170;-61
2023/02/27 06:40:28;;;;;;;;;3.00;3.00;;;;;;;;117885;1179;25508;-61
2023/02/27 06:42:56;;;;;;;;;4.00;4.00;;;;;;;;117896;1180;25625;-61
2023/02/27 06:45:24;;;;;;;;;4.33;2.33;;;;;;;;117859;1180;24750;-61
2023/02/27 06:47:53;;;;;;;;;4.67;3.67;;;;;;;;117858;1178;25327;-61
2023/02/27 06:50:21;;;;;;;;;3.00;3.00;;;;;;;;117895;1181;25508;-62
2023/02/27 06:52:50;;;;;;;;;3.67;3.00;;;;;;;;117878;1187;24980;-61
2023/02/27 06:55:21;;;;;;;;;3.00;3.00;;;;;;;;117855;1183;25584;-62
2023/02/27 06:57:50;;;;;;;;;2.00;2.00;;;;;;;;117821;1180;25308;-62
2023/02/27 07:00:19;;;;;;;;;3.67;3.67;;;;;;;;117880;1180;25007;-60
2023/02/27 07:02:47;;;;;;;;;2.50;2.00;;;;;;;;117966;1179;25446;-61
2023/02/27 07:05:17;;;;;;;;;3.50;3.00;;;;;;;;117885;1187;25022;-60
2023/02/27 07:07:45;;;;;;;;;2.33;2.00;;;;;;;;117900;1181;25431;-61
2023/02/27 07:10:13;;;;;;;;;4.00;3.00;;;;;;;;117879;1184;25494;-61
2023/02/27 07:12:42;;;;;;;;;3.50;2.00;;;;;;;;117895;1180;25635;-61
2023/02/27 07:15:11;;;;;;;;;4.00;4.00;;;;;;;;117857;1191;26167;-61
2023/02/27 07:17:39;;;;;;;;;3.67;3.00;;;;;;;;117845;1180;24983;-61
2023/02/27 07:20:09;;;;;;;;;4.75;3.00;;;;;;;;117897;1189;25500;-61
2023/02/27 07:22:39;;;;;;;;;3.00;2.67;;;;;;;;117856;1191;25553;-61
2023/02/27 07:25:08;;;;;;;;;4.00;3.00;;;;;;;;117872;1191;24783;-61
2023/02/27 07:27:37;;;;;;;;;2.00;2.00;;;;;;;;117891;1191;25480;-61
2023/02/27 07:30:07;;;;;;;;;5.25;2.00;;;;;;;;117899;1180;24845;-61
2023/02/27 07:32:35;;;;;;;;;2.00;2.00;;;;;;;;117875;1180;25487;-60
2023/02/27 07:35:04;;;;;;;;;2.00;2.00;;;;;;;;117881;1191;25375;-60
2023/02/27 07:37:33;;;;;;;;;3.33;1.00;;;;;;;;117855;1180;25568;-60
2023/02/27 07:40:02;;;;;;;;;6.67;3.33;;;;;;;;117796;1180;24921;-61
2023/02/27 07:42:31;;;;;;;;;3.00;3.00;;;;;;;;117890;1191;25040;-61
2023/02/27 07:44:59;;;;;;;;;2.67;2.00;;;;;;;;117867;1179;26148;-61
2023/02/27 07:47:29;;;;;;;;;2.67;2.33;;;;;;;;117884;1179;25563;-62
2023/02/27 07:49:57;;;;;;;;;2.00;2.00;;;;;;;;117846;1181;29815;-61
2023/02/27 07:52:26;;;;;;;;;4.00;3.00;;;;;;;;117790;1181;25344;-63
2023/02/27 07:54:54;;;;;;;;;3.00;2.50;;;;;;;;117822;1183;25684;-61
2023/02/27 07:57:23;;;;;;;;;4.00;2.33;;;;;;;;117907;1181;25690;-62
2023/02/27 07:59:51;;;;;;;;;5.00;3.00;;;;;;;;117773;1183;25467;-61
2023/02/27 08:02:20;;;;;;;;;2.67;2.67;;;;;;;;117879;1180;25521;-61
2023/02/27 08:04:50;;;;;;;;;3.00;2.00;;;;;;;;117869;1183;25275;-60
2023/02/27 08:07:19;;;;;;;;;3.67;3.00;;;;;;;;117781;1181;25607;-61
2023/02/27 08:09:48;;;;;;;;;3.00;2.33;;;;;;;;117911;1180;24719;-61
2023/02/27 08:12:17;;;;;;;;;3.75;3.50;;;;;;;;117841;1179;25663;-60
2023/02/27 08:14:45;;;;;;;;;3.50;3.00;;;;;;;;117830;1180;25048;-60
2023/02/27 08:17:14;;;;;;;;;2.00;2.00;;;;;;;;117863;1179;25719;-60
2023/02/27 08:19:42;;;;;;;;;4.00;3.33;;;;;;;;117834;1181;25258;-60
2023/02/27 08:22:11;;;;;;;;;4.33;3.67;;;;;;;;117865;1181;25383;-59
2023/02/27 08:24:39;;;;;;;;;4.00;3.67;;;;;;;;117813;1191;25103;-60
2023/02/27 08:27:08;;;;;;;;;4.67;2.00;;;;;;;;117826;1179;25240;-60
2023/02/27 08:29:36;;;;;;;;;6.50;3.50;;;;;;;;117819;1191;24934;-62
2023/02/27 08:32:05;;;;;;;;;4.50;4.50;;;;;;;;117798;1187;24936;-60
2023/02/27 08:34:34;;;;;;;;;9.67;5.33;;;;;;;;117853;1187;25455;-60
2023/02/27 08:37:02;;;;;;;;;5.33;3.00;;;;;;;;117846;1180;25321;-60
2023/02/27 08:39:31;;;;;;;;;3.00;2.67;;;;;;;;117755;1179;24795;-61
2023/02/27 08:42:00;;;;;;;;;7.00;4.00;;;;;;;;117762;1180;24960;-61
2023/02/27 08:44:28;;;;;;;;;4.00;3.00;;;;;;;;117883;1181;25611;-61
2023/02/27 08:46:57;;;;;;;;;6.67;5.00;;;;;;;;117832;1186;25702;-61
2023/02/27 08:49:25;;;;;;;;;2.00;2.00;;;;;;;;117797;1187;25214;-60
2023/02/27 08:51:54;;;;;;;;;5.00;5.00;;;;;;;;117904;1180;24803;-60
2023/02/27 08:54:22;;;;;;;;;3.50;3.50;;;;;;;;117747;1191;25697;-60
2023/02/27 08:56:51;;;;;;;;;6.75;4.00;;;;;;;;117844;1179;25182;-62
2023/02/27 08:59:19;;;;;;;;;5.33;4.00;;;;;;;;117784;1180;25295;-60
2023/02/27 09:01:48;;;;;;;;;9.00;6.00;;;;;;;;117838;1180;25169;-60
2023/02/27 09:04:16;;;;;;;;;8.33;3.67;;;;;;;;117875;1180;25041;-65
2023/02/27 09:06:45;;;;;;;;;5.67;4.33;;;;;;;;117875;1180;24988;-61
2023/02/27 09:09:13;;;;;;;;;4.33;2.67;;;;;;;;117839;1179;25284;-61
2023/02/27 09:11:42;;;;;;;;;4.50;3.00;;;;;;;;117862;1189;24830;-62
2023/02/27 09:14:11;;;;;;;;;6.67;5.33;;;;;;;;117865;1187;24719;-63
2023/02/27 09:16:39;;;;;;;;;2.00;2.00;;;;;;;;117720;1181;25560;-65
2023/02/27 09:19:08;;;;;;;;;5.50;3.00;;;;;;;;117871;1181;24900;-64
2023/02/27 09:21:36;;;;;;;;;5.50;4.00;;;;;;;;117856;1180;25677;-65
2023/02/27 09:24:05;;;;;;;;;5.00;3.00;;;;;;;;117818;1187;25273;-65
2023/02/27 09:26:47;;;;;;;;;2.00;2.00;;;;;;;;117807;1191;25304;-64
2023/02/27 09:29:17;;;;;;;;;7.25;4.25;;;;;;;;117898;1177;25570;-65
2023/02/27 09:31:46;;;;;;;;;4.00;3.50;;;;;;;;117866;1179;25202;-65
2023/02/27 09:34:14;;;;;;;;;4.00;1.00;;;;;;;;117903;1187;25617;-65
2023/02/27 09:36:43;;;;;;;;;3.00;2.00;;;;;;;;117904;1192;25438;-63
2023/02/27 09:39:12;;;;;;;;;6.00;3.00;;;;;;;;117857;1184;24742;-62
2023/02/27 09:42:03;;;;;;;;;4.00;3.00;;;;;;;;117874;1180;25732;-60
2023/02/27 09:44:38;;;;;;;;;6.00;4.00;;;;;;;;117831;1189;25029;-61
2023/02/27 09:47:24;;;;;;;;;3.00;3.00;;;;;;;;117824;1192;25223;-63
2023/02/27 09:49:58;;;;;;;;;5.33;3.67;;;;;;;;117864;1180;25659;-62
2023/02/27 09:52:29;;;;;;;;;5.00;3.00;;;;;;;;117795;1181;25543;-61
2023/02/27 09:54:57;;;;;;;;;5.50;3.50;;;;;;;;117831;1180;25684;-61
2023/02/27 09:57:57;;;;;;;;;3.33;3.00;;;;;;;;117793;1180;25091;-62
2023/02/27 10:00:45;;;;;;;;;5.50;3.25;;;;;;;;117890;1179;24714;-62
2023/02/27 10:03:38;;;;;;;;;5.33;4.00;;;;;;;;117806;1190;24926;-62
2023/02/27 10:06:24;;;;;;;;;5.00;5.00;;;;;;;;117847;1179;24996;-62
2023/02/27 10:09:01;;;;;;;;;8.00;5.00;;;;;;;;117872;1180;25678;-62
2023/02/27 10:12:01;;;;;;;;;8.00;5.00;;;;;;;;117875;1184;24832;-62
2023/02/27 10:14:32;;;;;;;;;7.50;4.00;;;;;;;;117849;1192;25106;-62
2023/02/27 10:17:03;;;;;;;;;6.00;5.33;;;;;;;;117855;1180;24779;-61
2023/02/27 10:19:34;;;;;;;;;4.67;4.67;;;;;;;;117816;1187;25144;-62
2023/02/27 10:22:07;;;;;;;;;6.25;5.50;;;;;;;;117870;1184;25671;-61
2023/02/27 10:24:44;;;;;;;;;8.00;5.00;;;;;;;;117811;1192;25015;-60
2023/02/27 10:27:15;;;;;;;;;4.33;3.33;;;;;;;;117881;1180;25667;-60
2023/02/27 10:29:45;;;;;;;;;5.00;5.00;;;;;;;;117833;1184;25217;-60
2023/02/27 10:32:31;;;;;;;;;6.00;6.00;;;;;;;;117860;1183;25098;-60
2023/02/27 10:35:46;;;;;;;;;3.33;3.33;;;;;;;;117778;1181;25224;-62
2023/02/27 10:38:25;;;;;;;;;5.00;5.00;;;;;;;;117871;1179;24802;-61
2023/02/27 10:40:55;;;;;;;;;5.00;4.00;;;;;;;;117899;1190;24921;-61
2023/02/27 10:43:25;;;;;;;;;6.25;4.50;;;;;;;;117905;1180;26471;-62
2023/02/27 10:45:54;;;;;;;;;6.50;5.50;;;;;;;;117794;1181;25382;-62
2023/02/27 10:48:22;;;;;;;;;4.00;4.00;;;;;;;;117893;1181;25053;-62
2023/02/27 10:50:50;;;;;;;;;5.00;5.00;;;;;;;;117845;1192;24845;-61
2023/02/27 10:53:24;;;;;;;;;5.00;5.00;;;;;;;;117863;1180;25259;-61
2023/02/27 10:56:09;;;;;;;;;5.67;5.67;;;;;;;;117816;1183;24937;-62
2023/02/27 10:58:38;;;;;;;;;4.00;3.00;;;;;;;;117736;1179;25794;-62
2023/02/27 11:01:08;;;;;;;;;5.00;5.00;;;;;;;;117735;1181;25581;-61
2023/02/27 11:03:39;;;;;;;;;7.50;4.50;;;;;;;;117830;1179;24822;-62
2023/02/27 11:06:21;;;;;;;;;5.00;5.00;;;;;;;;117485;1192;25377;-60
2023/02/27 11:09:09;;;;;;;;;8.50;5.50;;;;;;;;117795;1180;25060;-62
2023/02/27 11:11:38;;;;;;;;;4.75;3.00;;;;;;;;117733;1180;25589;-61
2023/02/27 11:14:26;;;;;;;;;5.00;5.00;;;;;;;;117730;1179;25746;-61
2023/02/27 11:17:00;;;;;;;;;3.50;3.50;;;;;;;;117455;1180;25026;-61
2023/02/27 11:19:37;;;;;;;;;7.67;7.67;;;;;;;;117830;1179;25192;-62
2023/02/27 11:22:13;;;;;;;;;5.00;5.00;;;;;;;;117861;1180;24779;-62
2023/02/27 11:24:42;;;;;;;;;4.00;4.00;;;;;;;;117886;1180;26319;-63
2023/02/27 11:27:41;;;;;;;;;6.00;6.00;;;;;;;;117870;1192;25618;-63
2023/02/27 11:30:35;;;;;;;;;4.50;4.50;;;;;;;;117884;1185;25423;-66
2023/02/27 11:33:04;;;;;;;;;5.67;5.67;;;;;;;;117805;1179;25034;-67
2023/02/27 11:35:36;;;;;;;;;6.00;6.00;;;;;;;;117841;1187;25648;-63
2023/02/27 11:38:27;;;;;;;;;6.00;6.00;;;;;;;;117828;1181;24747;-65
2023/02/27 11:40:59;;;;;;;;;5.00;5.00;;;;;;;;117825;1180;24686;-62
2023/02/27 11:44:01;;;;;;;;;6.00;4.00;;;;;;;;117852;1180;24812;-62
2023/02/27 11:46:30;;;;;;;;;5.75;5.75;;;;;;;;117803;1180;24822;-65
2023/02/27 11:49:32;;;;;;;;;6.50;6.00;;;;;;;;117810;1181;25242;-64
2023/02/27 11:52:36;;;;;;;;;5.50;4.50;;;;;;;;117858;1191;24949;-68
2023/02/27 11:55:14;;;;;;;;;6.00;5.50;;;;;;;;117842;1178;26154;-67
2023/02/27 11:57:45;;;;;;;;;7.33;6.00;;;;;;;;117855;1179;25157;-68
2023/02/27 12:00:19;;;;;;;;;5.00;5.00;;;;;;;;117792;1191;24729;-59
2023/02/27 12:03:00;;;;;;;;;8.75;6.50;;;;;;;;117845;1179;25202;-61
2023/02/27 12:05:37;;;;;;;;;7.75;5.75;;;;;;;;117921;1191;25543;-61
2023/02/27 12:08:36;;;;;;;;;11.00;4.00;;;;;;;;117892;1181;25501;-61
2023/02/27 12:11:20;;;;;;;;;8.00;5.50;;;;;;;;117860;1181;25311;-61
2023/02/27 12:14:18;;;;;;;;;1.00;1.00;;;;;;;;117823;1179;25057;-61
2023/02/27 12:16:52;;;;;;;;;7.00;4.00;;;;;;;;117829;1180;25422;-61
2023/02/27 12:19:39;;;;;;;;;5.00;4.00;;;;;;;;117875;1180;24827;-61
2023/02/27 12:22:29;;;;;;;;;6.50;4.00;;;;;;;;117872;1191;25159;-61
2023/02/27 12:25:19;;;;;;;;;7.75;7.75;;;;;;;;117805;1183;24918;-60
2023/02/27 12:27:54;;;;;;;;;7.00;5.33;;;;;;;;117871;1180;25638;-59
2023/02/27 12:30:28;;;;;;;;;5.50;4.00;;;;;;;;117782;1180;25553;-59
2023/02/27 12:33:16;;;;;;;;;5.75;4.50;;;;;;;;117801;1180;25081;-59
2023/02/27 12:35:50;;;;;;;;;4.00;4.00;;;;;;;;117851;1180;25280;-61
2023/02/27 12:38:21;;;;;;;;;5.25;4.50;;;;;;;;117843;1180;25416;-60
2023/02/27 12:40:52;;;;;;;;;2.67;2.00;;;;;;;;117843;1180;25182;-61
2023/02/27 12:43:44;;;;;;;;;5.75;5.00;;;;;;;;117839;1179;25422;-61
2023/02/27 12:46:48;;;;;;;;;4.67;4.00;;;;;;;;117818;1187;25597;-61
2023/02/27 12:49:50;;;;;;;;;7.00;6.25;;;;;;;;117775;1180;24740;-61
2023/02/27 12:52:44;;;;;;;;;7.75;5.75;;;;;;;;117869;1183;24960;-61
2023/02/27 12:55:24;;;;;;;;;5.75;5.50;;;;;;;;117812;1187;25415;-62
2023/02/27 12:58:14;;;;;;;;;2.00;2.00;;;;;;;;117804;1179;24761;-60
2023/02/27 13:00:59;;;;;;;;;4.33;4.00;;;;;;;;117857;1183;25830;-61
2023/02/27 13:03:47;;;;;;;;;6.33;4.33;;;;;;;;117851;1180;25568;-61
2023/02/27 13:06:42;;;;;;;;;3.00;3.00;;;;;;;;117832;1179;25637;-61
2023/02/27 13:09:32;;;;;;;;;5.00;5.00;;;;;;;;117785;1181;25411;-61
2023/02/27 13:12:30;;;;;;;;;5.00;4.50;;;;;;;;117833;1178;24730;-62
2023/02/27 13:15:10;;;;;;;;;3.25;3.25;;;;;;;;117858;1181;25461;-67
2023/02/27 13:18:15;;;;;;;;;7.00;4.00;;;;;;;;117831;1190;25594;-64
2023/02/27 13:20:52;;;;;;;;;5.33;5.33;;;;;;;;117879;1179;25358;-64
2023/02/27 13:23:53;;;;;;;;;5.00;5.00;;;;;;;;117833;1191;25099;-66
2023/02/27 13:26:30;;;;;;;;;5.00;4.33;;;;;;;;117446;1182;25235;-66
2023/02/27 13:28:59;;;;;;;;;3.75;3.75;;;;;;;;117877;1179;25273;-64
2023/02/27 13:31:30;;;;;;;;;6.00;4.00;;;;;;;;117902;1179;25466;-66
2023/02/27 13:34:21;;;;;;;;;3.50;3.50;;;;;;;;117878;1180;24713;-64
2023/02/27 13:37:05;;;;;;;;;4.00;4.00;;;;;;;;117888;1180;25035;-65
2023/02/27 13:39:40;;;;;;;;;5.00;3.00;;;;;;;;117880;1180;25354;-65
2023/02/27 13:42:31;;;;;;;;;5.50;4.00;;;;;;;;117866;1180;25583;-65
2023/02/27 13:45:05;;;;;;;;;4.00;3.00;;;;;;;;117781;1180;24930;-64
2023/02/27 13:47:46;;;;;;;;;5.67;4.33;;;;;;;;117854;1179;25016;-63
2023/02/27 13:50:19;;;;;;;;;4.75;3.00;;;;;;;;117855;1187;25078;-62
2023/02/27 13:52:48;;;;;;;;;6.00;4.67;;;;;;;;117897;1180;25403;-62
2023/02/27 13:55:34;;;;;;;;;5.00;4.00;;;;;;;;117895;1179;25666;-62
2023/02/27 13:58:04;;;;;;;;;2.75;2.75;;;;;;;;117846;1180;24701;-63
2023/02/27 14:00:34;;;;;;;;;5.00;5.00;;;;;;;;117791;1181;26076;-62
2023/02/27 14:03:20;;;;;;;;;5.50;4.50;;;;;;;;117880;1180;25461;-62
2023/02/27 14:05:51;;;;;;;;;3.75;3.25;;;;;;;;117911;1179;24735;-62
2023/02/27 14:08:22;;;;;;;;;4.00;4.00;;;;;;;;117865;1180;25596;-64
2023/02/27 14:10:56;;;;;;;;;4.25;3.00;;;;;;;;117937;1186;25552;-64
2023/02/27 14:13:43;;;;;;;;;4.25;4.25;;;;;;;;117826;1187;26144;-66
2023/02/27 14:16:38;;;;;;;;;4.00;4.00;;;;;;;;117855;1191;25378;-64
2023/02/27 14:19:18;;;;;;;;;4.00;3.00;;;;;;;;117874;1179;25384;-62
2023/02/27 14:21:50;;;;;;;;;4.00;3.33;;;;;;;;117865;1179;25664;-61
2023/02/27 14:24:25;;;;;;;;;7.50;4.00;;;;;;;;117868;1181;24871;-65
2023/02/27 14:26:54;;;;;;;;;5.33;4.67;;;;;;;;117874;1191;24878;-63
2023/02/27 14:29:29;;;;;;;;;3.00;3.00;;;;;;;;117892;1191;24766;-64
2023/02/27 14:32:07;;;;;;;;;5.00;3.50;;;;;;;;117816;1180;25269;-63
2023/02/27 14:34:37;;;;;;;;;2.25;2.25;;;;;;;;117866;1187;24751;-65
2023/02/27 14:37:19;;;;;;;;;2.00;2.00;;;;;;;;117840;1181;25675;-67
2023/02/27 14:39:55;;;;;;;;;2.00;2.00;;;;;;;;117851;1180;25633;-68
2023/02/27 14:42:43;;;;;;;;;1.67;1.33;;;;;;;;117884;1180;25022;-63
2023/02/27 14:45:14;;;;;;;;;3.00;3.00;;;;;;;;117849;1191;25431;-64
2023/02/27 14:47:45;;;;;;;;;3.50;3.50;;;;;;;;117835;1192;25217;-63
2023/02/27 14:50:23;;;;;;;;;3.00;3.00;;;;;;;;117905;1180;25531;-68
2023/02/27 14:52:52;;;;;;;;;6.00;3.00;;;;;;;;117826;1188;25674;-64
2023/02/27 14:55:27;;;;;;;;;2.00;2.00;;;;;;;;117598;1181;24996;-65
2023/02/27 14:58:17;;;;;;;;;2.00;2.00;;;;;;;;117834;1180;24712;-70
2023/02/27 15:01:06;;;;;;;;;4.00;3.00;;;;;;;;117834;1183;25214;-67
2023/02/27 15:03:40;;;;;;;;;4.33;3.00;;;;;;;;117891;1192;25372;-67
2023/02/27 15:06:18;;;;;;;;;3.00;3.00;;;;;;;;117846;1192;25093;-67
2023/02/27 15:08:52;;;;;;;;;3.00;3.00;;;;;;;;117830;1187;24815;-66
2023/02/27 15:11:22;;;;;;;;;3.00;3.00;;;;;;;;117875;1192;25324;-67
2023/02/27 15:13:57;;;;;;;;;2.00;2.00;;;;;;;;117786;1192;25268;-65
2023/02/27 15:16:33;;;;;;;;;1.75;1.75;;;;;;;;117816;1180;24770;-65
2023/02/27 15:19:14;;;;;;;;;5.00;3.33;;;;;;;;117883;1180;24828;-63
2023/02/27 15:22:00;;;;;;;;;3.33;3.00;;;;;;;;117838;1183;25128;-63
2023/02/27 15:24:34;;;;;;;;;4.00;4.00;;;;;;;;117876;1181;25728;-63
2023/02/27 15:27:21;;;;;;;;;4.00;4.00;;;;;;;;117901;1187;25415;-63